Weather at King Khaled International Airport

Public forecast

Using degrees Celsius for public forecast. Weather courtesy of forecast.io.

Current aviation weather report (METAR) for King Khaled International Airport

Retrieved 2021/03/02 19:00 UTC (9 minutes ago):

OERK 021900Z 06003KT CAVOK 19/06 Q1021 NOSIG

Aviation forecast (TAF) for King Khaled International Airport

Forecast is more than 6 hours old.

Retrieved 2021/03/02 12:33 UTC (7 hours ago):

TAF OERK 021100Z 0212/0318 06012KT 9999 FEW040 BECMG 0220/0222 VRB03KT